Escape — WCY2956 — position and weather

sailwx.info

Track history (hours):
 
Tides and Currents Weather Stations Pressure Air Temp Water Temp Dewpoint Dewpoint Depression Visibility Wind Speed Wind Dir Waves Ship Positions

Escape

Owner: PIGOTT, CHARLES M, BELLEVUE, WA. More information available from US FCC via Universal Licensing System and Coast Guard Vessel Documentation Center.

Last reported at 2018-Jun-20 21:27 UTC. Time now 2018-Jun-23 04:45 UTC.
Position N 54°37' W 130°45'.

Length 38 m; draft 3 m.

Type: Pleasure craft. MMSI: 367125320.

Date/timePositionNaut miles runAvg speedWind from/ knotsBaromVisibWave heightAir tempDewpointWater temp
2018-Jun-20 21:27N 54°37' W 130°45'511.4
2018-Jun-20 20:59N 54°32' W 130°42'510.9
2018-Jun-20 20:30N 54°27' W 130°38'510.8
2018-Jun-20 20:00N 54°22' W 130°35'611.0
2018-Jun-20 19:30N 54°17' W 130°32'511.0
2018-Jun-20 19:00N 54°12' W 130°28'611.6
2018-Jun-20 18:30N 54°07' W 130°23'611.5
2018-Jun-20 18:00N 54°03' W 130°16'611.4
2018-Jun-20 17:30N 53°58' W 130°12'510.7
2018-Jun-20 17:01N 53°54' W 130°07'510.6
2018-Jun-20 16:31N 53°50' W 130°01'90 3.9
2018-Jun-19 17:29N 52°38' W 128°31'810.4
2018-Jun-19 16:42N 52°30' W 128°28'210.4
2018-Jun-19 16:30N 52°28' W 128°28'510.2
2018-Jun-19 16:00N 52°23' W 128°29'510.4
2018-Jun-19 15:30N 52°18' W 128°29'810.9
2018-Jun-19 14:47N 52°15' W 128°17'311.2
2018-Jun-19 14:30N 52°14' W 128°12'510.3
2018-Jun-19 14:00N 52°14' W 128°04'2 0.1
2018-Jun-18 23:30N 52°14' W 128°01'4 7.3
2018-Jun-18 23:00N 52°12' W 128°06'4 8.8
2018-Jun-18 22:30N 52°08' W 128°08'5 9.2
2018-Jun-18 22:00N 52°05' W 128°03'5 9.1
2018-Jun-18 21:30N 52°03' W 127°56'510.7
2018-Jun-18 21:00N 51°57' W 127°56'510.8
2018-Jun-18 20:30N 51°52' W 127°55'510.9
2018-Jun-18 20:00N 51°46' W 127°55'510.4
2018-Jun-18 19:30N 51°41' W 127°55'510.6
2018-Jun-18 19:00N 51°36' W 127°53'510.4
2018-Jun-18 18:30N 51°31' W 127°52'510.3
2018-Jun-18 18:00N 51°26' W 127°52'510.0
2018-Jun-18 17:29N 51°20' W 127°53'5 9.9
2018-Jun-18 16:56N 51°15' W 127°52'510.5
2018-Jun-18 16:25N 51°10' W 127°50'410.8
2018-Jun-18 16:00N 51°07' W 127°45'611.2
2018-Jun-18 15:30N 51°03' W 127°39'611.4
2018-Jun-18 15:00N 50°59' W 127°32'611.5
2018-Jun-18 14:30N 50°55' W 127°25'510.4
2018-Jun-18 14:00N 50°53' W 127°17'1 1.8
2018-Jun-18 13:30N 50°54' W 127°17'0 0.0
2018-Jun-18 13:00N 50°54' W 127°17'0 0.0
2018-Jun-18 12:30N 50°54' W 127°17'0 0.0
2018-Jun-18 11:42N 50°54' W 127°17'0 0.0
2018-Jun-18 11:24N 50°54' W 127°17'0 0.0
2018-Jun-18 11:00N 50°54' W 127°17'0 0.0
2018-Jun-18 10:30N 50°54' W 127°17'0 0.0
2018-Jun-18 10:00N 50°54' W 127°17'0 0.0
2018-Jun-18 09:30N 50°54' W 127°17'0 0.0
2018-Jun-18 08:54N 50°54' W 127°17'0 0.0
2018-Jun-18 08:24N 50°54' W 127°17'0 0.0
2018-Jun-18 07:54N 50°54' W 127°17'0 0.0
2018-Jun-18 07:18N 50°54' W 127°17'0 0.0
2018-Jun-18 07:00N 50°54' W 127°17'0 0.0
2018-Jun-18 06:18N 50°54' W 127°17'0 0.1
2018-Jun-18 06:00N 50°54' W 127°17'0 0.1
2018-Jun-18 05:30N 50°54' W 127°17'0 0.0
2018-Jun-18 04:54N 50°54' W 127°17'0 0.1
2018-Jun-18 04:30N 50°54' W 127°17'0 0.1
2018-Jun-18 04:00N 50°54' W 127°17'0 0.0
2018-Jun-18 03:30N 50°54' W 127°17'0 0.1
2018-Jun-18 03:00N 50°54' W 127°17'0 0.1
2018-Jun-18 02:18N 50°54' W 127°17'0 0.0
2018-Jun-18 01:48N 50°54' W 127°17'0 0.0
2018-Jun-18 01:30N 50°54' W 127°17'0 0.0
2018-Jun-18 01:00N 50°54' W 127°17'1 1.7
2018-Jun-18 00:30N 50°54' W 127°16'5 9.9
2018-Jun-17 23:59N 50°49' W 127°14'610.2
2018-Jun-17 23:25N 50°43' W 127°13'410.2
2018-Jun-17 22:59N 50°39' W 127°12'10 9.3
2018-Jun-17 21:53N 50°35' W 126°57'4 9.9
2018-Jun-17 21:30N 50°34' W 126°52'5612.1
2018-Jun-17 16:55N 50°20' W 125°27'511.6
2018-Jun-17 16:30N 50°16' W 125°24'611.6
2018-Jun-17 16:00N 50°11' W 125°22'5 9.7
2018-Jun-17 15:31N 50°06' W 125°18'5 9.5
2018-Jun-17 15:00N 50°02' W 125°15'0 0.2
2018-Jun-17 14:29N 50°02' W 125°15'0 0.0
2018-Jun-17 13:59N 50°02' W 125°15'0 0.0
2018-Jun-17 13:29N 50°02' W 125°15'0 0.0
2018-Jun-17 12:59N 50°02' W 125°15'0 0.0
2018-Jun-17 12:29N 50°02' W 125°15'0 0.0
2018-Jun-17 11:59N 50°02' W 125°15'0 0.0
2018-Jun-17 11:29N 50°02' W 125°15'0 0.0
2018-Jun-17 10:59N 50°02' W 125°15'0 0.0
2018-Jun-17 10:29N 50°02' W 125°15'0 0.0
2018-Jun-17 09:59N 50°02' W 125°15'0 0.0
2018-Jun-17 09:29N 50°02' W 125°15'0 0.0
2018-Jun-17 08:59N 50°02' W 125°15'0 0.0
2018-Jun-17 08:29N 50°02' W 125°15'0 0.0
2018-Jun-17 07:59N 50°02' W 125°15'0 0.0
2018-Jun-17 07:29N 50°02' W 125°15'0 0.0
2018-Jun-17 06:59N 50°02' W 125°15'0 0.0
2018-Jun-17 06:29N 50°02' W 125°15'0 0.0
2018-Jun-17 05:59N 50°02' W 125°15'0 0.0
2018-Jun-17 05:29N 50°02' W 125°15'0 0.0
2018-Jun-17 04:59N 50°02' W 125°15'0 0.0
2018-Jun-17 04:29N 50°02' W 125°15'0 0.0
2018-Jun-17 03:59N 50°02' W 125°15'0 0.0
2018-Jun-17 03:29N 50°02' W 125°15'0 0.0
2018-Jun-17 02:59N 50°02' W 125°15'0 0.0
2018-Jun-17 02:29N 50°02' W 125°15'0 0.0
2018-Jun-17 01:59N 50°02' W 125°15'0 0.0
2018-Jun-17 01:29N 50°02' W 125°15'0 0.0
2018-Jun-17 00:59N 50°02' W 125°15'0 0.0
2018-Jun-17 00:29N 50°02' W 125°15'0 0.0
2018-Jun-16 23:56N 50°02' W 125°15'0 0.0
2018-Jun-16 23:29N 50°02' W 125°15'1 1.9
2018-Jun-16 23:00N 50°01' W 125°14'3 6.6
2018-Jun-16 22:30N 49°59' W 125°11'510.0
2018-Jun-16 22:00N 49°55' W 125°05'510.9
2018-Jun-16 21:30N 49°51' W 124°60'510.9
2018-Jun-16 21:00N 49°47' W 124°54'510.0
2018-Jun-16 20:30N 49°43' W 124°49'510.3
2018-Jun-16 20:00N 49°39' W 124°44'510.3
2018-Jun-16 19:29N 49°36' W 124°38'6 9.5
2018-Jun-16 18:51N 49°31' W 124°32'50 2.5
2018-Jun-15 22:52N 48°59' W 123°35'410.6
2018-Jun-15 22:28N 48°55' W 123°30'510.6
2018-Jun-15 22:00N 48°52' W 123°25'510.5
2018-Jun-15 21:29N 48°47' W 123°21'611.6
2018-Jun-15 20:57N 48°42' W 123°15'510.9
2018-Jun-15 20:30N 48°37' W 123°14'4 8.3
2018-Jun-15 20:00N 48°33' W 123°11'4 7.6
2018-Jun-15 19:30N 48°30' W 123°09'4 7.2
2018-Jun-15 18:59N 48°27' W 123°05'3412.0
2018-Jun-15 16:11N 47°60' W 122°35'314.6
2018-Jun-15 15:58N 47°57' W 122°33'613.1
2018-Jun-15 15:30N 47°52' W 122°30'611.8
2018-Jun-15 15:00N 47°46' W 122°28'611.2
2018-Jun-15 14:30N 47°40' W 122°29'3 6.6
2018-Jun-15 14:00N 47°37' W 122°30'0 0.7
2018-Jun-15 13:26N 47°37' W 122°31'0 0.0
2018-Jun-15 12:59N 47°37' W 122°31'0 0.0
2018-Jun-15 12:29N 47°37' W 122°31'0 0.0
2018-Jun-15 11:59N 47°37' W 122°31'0 0.0
2018-Jun-15 11:29N 47°37' W 122°31'0 0.0
2018-Jun-15 10:59N 47°37' W 122°31'0 0.0
2018-Jun-15 10:29N 47°37' W 122°31'0 0.0
2018-Jun-15 09:59N 47°37' W 122°31'0 0.0
2018-Jun-15 09:29N 47°37' W 122°31'0 0.0
2018-Jun-15 08:59N 47°37' W 122°31'0 0.0
2018-Jun-15 08:29N 47°37' W 122°31'0 0.0
2018-Jun-15 07:56N 47°37' W 122°31'0 0.0
2018-Jun-15 07:29N 47°37' W 122°31'0 0.0
2018-Jun-15 06:59N 47°37' W 122°31'0 0.0
2018-Jun-15 06:29N 47°37' W 122°31'0 0.0
2018-Jun-15 05:59N 47°37' W 122°31'0 0.0
2018-Jun-15 05:26N 47°37' W 122°31'0 0.0
2018-Jun-15 04:59N 47°37' W 122°31'0 0.0
2018-Jun-15 04:29N 47°37' W 122°31'0 0.0
2018-Jun-15 03:59N 47°37' W 122°31'0 0.0
2018-Jun-15 03:29N 47°37' W 122°31'0 0.0
2018-Jun-15 02:56N 47°37' W 122°31'0 0.0
2018-Jun-15 02:29N 47°37' W 122°31'0 0.0
2018-Jun-15 01:56N 47°37' W 122°31'0 0.0
2018-Jun-15 01:29N 47°37' W 122°31'0 0.0
2018-Jun-15 00:59N 47°37' W 122°31'0 0.0
2018-Jun-15 00:23N 47°37' W 122°31'0 0.0
2018-Jun-14 23:57N 47°37' W 122°31'0 0.0
2018-Jun-14 23:31N 47°37' W 122°31'0 0.0
2018-Jun-14 23:00N 47°37' W 122°31'0 0.0
2018-Jun-14 22:30N 47°37' W 122°31'0 0.0
2018-Jun-14 22:01N 47°37' W 122°31'0 0.7
2018-Jun-14 21:30N 47°37' W 122°30'4 7.5
2018-Jun-14 21:00N 47°40' W 122°27'2 4.3
2018-Jun-14 20:31N 47°40' W 122°24'0 0.3
2018-Jun-14 20:00N 47°40' W 122°24'0 0.0
2018-Jun-14 19:30N 47°40' W 122°24'3 5.5
2018-Jun-14 19:00N 47°39' W 122°20'4 7.1
2018-Jun-14 18:30N 47°38' W 122°15'2 4.2
2018-Jun-14 17:59N 47°37' W 122°13'0 0.0
2018-Jun-14 17:30N 47°37' W 122°13'0 0.0
2018-Jun-14 16:56N 47°37' W 122°13'0 0.0
2018-Jun-14 16:30N 47°37' W 122°13'0 0.0
2018-Jun-14 16:00N 47°37' W 122°13'0 0.0
2018-Jun-14 15:30N 47°37' W 122°13'0 0.0
2018-Jun-14 15:00N 47°37' W 122°13'0 0.0
2018-Jun-14 14:30N 47°37' W 122°13'0 0.0
2018-Jun-14 13:59N 47°37' W 122°13'0 0.0
2018-Jun-14 13:30N 47°37' W 122°13'0 0.0
2018-Jun-14 13:00N 47°37' W 122°13'0 0.0
2018-Jun-14 12:30N 47°37' W 122°13'0 0.0
2018-Jun-14 12:00N 47°37' W 122°13'0 0.0
2018-Jun-14 11:30N 47°37' W 122°13'0 0.0
2018-Jun-14 11:00N 47°37' W 122°13'0 0.0
2018-Jun-14 10:26N 47°37' W 122°13'0 0.0
2018-Jun-14 10:00N 47°37' W 122°13'0 0.0
2018-Jun-14 09:29N 47°37' W 122°13'0 0.0
2018-Jun-14 09:00N 47°37' W 122°13'0 0.0
2018-Jun-14 08:30N 47°37' W 122°13'0 0.0
2018-Jun-14 08:00N 47°37' W 122°13'0 0.0
2018-Jun-14 07:30N 47°37' W 122°13'0 0.0
2018-Jun-14 07:00N 47°37' W 122°13'0 0.0
2018-Jun-14 06:30N 47°37' W 122°13'0 0.0
2018-Jun-14 06:00N 47°37' W 122°13'0 0.0
2018-Jun-14 05:30N 47°37' W 122°13'0 0.0
2018-Jun-13 22:41N 47°37' W 122°13'0 0.0
2018-Jun-13 22:29N 47°37' W 122°13'0 0.0
2018-Jun-13 22:00N 47°37' W 122°13'0 0.0
2018-Jun-13 21:30N 47°37' W 122°13'0 0.0
2018-Jun-13 21:00N 47°37' W 122°13'0 0.0
2018-Jun-13 20:28N 47°37' W 122°13'0 0.0
2018-Jun-13 20:01N 47°37' W 122°13'0 0.0
2018-Jun-13 19:30N 47°37' W 122°13'0 0.0
2018-Jun-13 19:00N 47°37' W 122°13'0 0.0
2018-Jun-13 18:30N 47°37' W 122°13'0 0.0
2018-Jun-13 10:52N 47°37' W 122°13'0 0.0
2018-Jun-13 10:30N 47°37' W 122°13'0 0.0
2018-Jun-13 10:00N 47°37' W 122°13'0 0.0
2018-Jun-13 09:30N 47°37' W 122°13'0 0.0
2018-Jun-13 09:00N 47°37' W 122°13'0 0.0
2018-Jun-13 08:30N 47°37' W 122°13'0 0.0
2018-Jun-13 08:00N 47°37' W 122°13'0 0.0
2018-Jun-13 07:30N 47°37' W 122°13'0 0.0
2018-Jun-13 07:00N 47°37' W 122°13'0 0.0
2018-Jun-13 06:30N 47°37' W 122°13'0 0.0
2018-Jun-13 06:00N 47°37' W 122°13'0 0.0
2018-Jun-12 23:11N 47°37' W 122°13'0 0.0
2018-Jun-12 23:00N 47°37' W 122°13'0 0.0
2018-Jun-12 22:30N 47°37' W 122°13'0 0.0
2018-Jun-12 22:00N 47°37' W 122°13'0 0.0
2018-Jun-12 21:30N 47°37' W 122°13'0 0.0
2018-Jun-12 21:00N 47°37' W 122°13'0 0.0
2018-Jun-12 20:30N 47°37' W 122°13'0 0.0
2018-Jun-12 20:00N 47°37' W 122°13'0 0.0
2018-Jun-12 19:30N 47°37' W 122°13'0 0.0
2018-Jun-12 19:00N 47°37' W 122°13'0 0.0
2018-Jun-12 18:30N 47°37' W 122°13'0 0.0
2018-Jun-12 18:00N 47°37' W 122°13'0 0.0
2018-Jun-12 17:30N 47°37' W 122°13'0 0.0
2018-Jun-12 17:00N 47°37' W 122°13'0 0.0
2018-Jun-12 16:30N 47°37' W 122°13'0 0.0
2018-Jun-12 16:00N 47°37' W 122°13'0 0.0
2018-Jun-12 15:30N 47°37' W 122°13'0 0.0
2018-Jun-12 14:59N 47°37' W 122°13'0 0.0
2018-Jun-12 14:29N 47°37' W 122°13'0 0.0
2018-Jun-11 02:34N 47°37' W 122°13'0 0.0
2018-Jun-11 02:25N 47°37' W 122°13'0 0.0
2018-Jun-11 02:00N 47°37' W 122°13'0 0.0
2018-Jun-10 23:26N 47°37' W 122°13'0 0.0
2018-Jun-10 23:00N 47°37' W 122°13'0 0.0
2018-Jun-10 22:28N 47°37' W 122°13'0 0.0
2018-Jun-10 21:59N 47°37' W 122°13'0 0.0
2018-Jun-10 21:30N 47°37' W 122°13'  
Track history (hours):
 
Tides and Currents Weather Stations Pressure Air Temp Water Temp Dewpoint Dewpoint Depression Visibility Wind Speed Wind Dir Waves Ship Positions

Escape

Owner: PIGOTT, CHARLES M, BELLEVUE, WA. More information available from US FCC via Universal Licensing System and Coast Guard Vessel Documentation Center.

Last reported at 2018-Jun-20 21:27 UTC. Time now 2018-Jun-23 04:45 UTC.
Position N 54°37' W 130°45'.

Length 38 m; draft 3 m.

Type: Pleasure craft. MMSI: 367125320.

Date/timePositionNaut miles runAvg speedWind from/ knotsBaromVisibWave heightAir tempDewpointWater temp
2018-Jun-20 21:27N 54°37' W 130°45'511.4
2018-Jun-20 20:59N 54°32' W 130°42'510.9
2018-Jun-20 20:30N 54°27' W 130°38'510.8
2018-Jun-20 20:00N 54°22' W 130°35'611.0
2018-Jun-20 19:30N 54°17' W 130°32'511.0
2018-Jun-20 19:00N 54°12' W 130°28'611.6
2018-Jun-20 18:30N 54°07' W 130°23'611.5
2018-Jun-20 18:00N 54°03' W 130°16'611.4
2018-Jun-20 17:30N 53°58' W 130°12'510.7
2018-Jun-20 17:01N 53°54' W 130°07'510.6
2018-Jun-20 16:31N 53°50' W 130°01'90 3.9
2018-Jun-19 17:29N 52°38' W 128°31'810.4
2018-Jun-19 16:42N 52°30' W 128°28'210.4
2018-Jun-19 16:30N 52°28' W 128°28'510.2
2018-Jun-19 16:00N 52°23' W 128°29'510.4
2018-Jun-19 15:30N 52°18' W 128°29'810.9
2018-Jun-19 14:47N 52°15' W 128°17'311.2
2018-Jun-19 14:30N 52°14' W 128°12'510.3
2018-Jun-19 14:00N 52°14' W 128°04'2 0.1
2018-Jun-18 23:30N 52°14' W 128°01'4 7.3
2018-Jun-18 23:00N 52°12' W 128°06'4 8.8
2018-Jun-18 22:30N 52°08' W 128°08'5 9.2
2018-Jun-18 22:00N 52°05' W 128°03'5 9.1
2018-Jun-18 21:30N 52°03' W 127°56'510.7
2018-Jun-18 21:00N 51°57' W 127°56'510.8
2018-Jun-18 20:30N 51°52' W 127°55'510.9
2018-Jun-18 20:00N 51°46' W 127°55'510.4
2018-Jun-18 19:30N 51°41' W 127°55'510.6
2018-Jun-18 19:00N 51°36' W 127°53'510.4
2018-Jun-18 18:30N 51°31' W 127°52'510.3
2018-Jun-18 18:00N 51°26' W 127°52'510.0
2018-Jun-18 17:29N 51°20' W 127°53'5 9.9
2018-Jun-18 16:56N 51°15' W 127°52'510.5
2018-Jun-18 16:25N 51°10' W 127°50'410.8
2018-Jun-18 16:00N 51°07' W 127°45'611.2
2018-Jun-18 15:30N 51°03' W 127°39'611.4
2018-Jun-18 15:00N 50°59' W 127°32'611.5
2018-Jun-18 14:30N 50°55' W 127°25'510.4
2018-Jun-18 14:00N 50°53' W 127°17'1 1.8
2018-Jun-18 13:30N 50°54' W 127°17'0 0.0
2018-Jun-18 13:00N 50°54' W 127°17'0 0.0
2018-Jun-18 12:30N 50°54' W 127°17'0 0.0
2018-Jun-18 11:42N 50°54' W 127°17'0 0.0
2018-Jun-18 11:24N 50°54' W 127°17'0 0.0
2018-Jun-18 11:00N 50°54' W 127°17'0 0.0
2018-Jun-18 10:30N 50°54' W 127°17'0 0.0
2018-Jun-18 10:00N 50°54' W 127°17'0 0.0
2018-Jun-18 09:30N 50°54' W 127°17'0 0.0
2018-Jun-18 08:54N 50°54' W 127°17'0 0.0
2018-Jun-18 08:24N 50°54' W 127°17'0 0.0
2018-Jun-18 07:54N 50°54' W 127°17'0 0.0
2018-Jun-18 07:18N 50°54' W 127°17'0 0.0
2018-Jun-18 07:00N 50°54' W 127°17'0 0.0
2018-Jun-18 06:18N 50°54' W 127°17'0 0.1
2018-Jun-18 06:00N 50°54' W 127°17'0 0.1
2018-Jun-18 05:30N 50°54' W 127°17'0 0.0
2018-Jun-18 04:54N 50°54' W 127°17'0 0.1
2018-Jun-18 04:30N 50°54' W 127°17'0 0.1
2018-Jun-18 04:00N 50°54' W 127°17'0 0.0
2018-Jun-18 03:30N 50°54' W 127°17'0 0.1
2018-Jun-18 03:00N 50°54' W 127°17'0 0.1
2018-Jun-18 02:18N 50°54' W 127°17'0 0.0
2018-Jun-18 01:48N 50°54' W 127°17'0 0.0
2018-Jun-18 01:30N 50°54' W 127°17'0 0.0
2018-Jun-18 01:00N 50°54' W 127°17'1 1.7
2018-Jun-18 00:30N 50°54' W 127°16'5 9.9
2018-Jun-17 23:59N 50°49' W 127°14'610.2
2018-Jun-17 23:25N 50°43' W 127°13'410.2
2018-Jun-17 22:59N 50°39' W 127°12'10 9.3
2018-Jun-17 21:53N 50°35' W 126°57'4 9.9
2018-Jun-17 21:30N 50°34' W 126°52'5612.1
2018-Jun-17 16:55N 50°20' W 125°27'511.6
2018-Jun-17 16:30N 50°16' W 125°24'611.6
2018-Jun-17 16:00N 50°11' W 125°22'5 9.7
2018-Jun-17 15:31N 50°06' W 125°18'5 9.5
2018-Jun-17 15:00N 50°02' W 125°15'0 0.2
2018-Jun-17 14:29N 50°02' W 125°15'0 0.0
2018-Jun-17 13:59N 50°02' W 125°15'0 0.0
2018-Jun-17 13:29N 50°02' W 125°15'0 0.0
2018-Jun-17 12:59N 50°02' W 125°15'0 0.0
2018-Jun-17 12:29N 50°02' W 125°15'0 0.0
2018-Jun-17 11:59N 50°02' W 125°15'0 0.0
2018-Jun-17 11:29N 50°02' W 125°15'0 0.0
2018-Jun-17 10:59N 50°02' W 125°15'0 0.0
2018-Jun-17 10:29N 50°02' W 125°15'0 0.0
2018-Jun-17 09:59N 50°02' W 125°15'0 0.0
2018-Jun-17 09:29N 50°02' W 125°15'0 0.0
2018-Jun-17 08:59N 50°02' W 125°15'0 0.0
2018-Jun-17 08:29N 50°02' W 125°15'0 0.0
2018-Jun-17 07:59N 50°02' W 125°15'0 0.0
2018-Jun-17 07:29N 50°02' W 125°15'0 0.0
2018-Jun-17 06:59N 50°02' W 125°15'0 0.0
2018-Jun-17 06:29N 50°02' W 125°15'0 0.0
2018-Jun-17 05:59N 50°02' W 125°15'0 0.0
2018-Jun-17 05:29N 50°02' W 125°15'0 0.0
2018-Jun-17 04:59N 50°02' W 125°15'0 0.0
2018-Jun-17 04:29N 50°02' W 125°15'0 0.0
2018-Jun-17 03:59N 50°02' W 125°15'0 0.0
2018-Jun-17 03:29N 50°02' W 125°15'0 0.0
2018-Jun-17 02:59N 50°02' W 125°15'0 0.0
2018-Jun-17 02:29N 50°02' W 125°15'0 0.0
2018-Jun-17 01:59N 50°02' W 125°15'0 0.0
2018-Jun-17 01:29N 50°02' W 125°15'0 0.0
2018-Jun-17 00:59N 50°02' W 125°15'0 0.0
2018-Jun-17 00:29N 50°02' W 125°15'0 0.0
2018-Jun-16 23:56N 50°02' W 125°15'0 0.0
2018-Jun-16 23:29N 50°02' W 125°15'1 1.9
2018-Jun-16 23:00N 50°01' W 125°14'3 6.6
2018-Jun-16 22:30N 49°59' W 125°11'510.0
2018-Jun-16 22:00N 49°55' W 125°05'510.9
2018-Jun-16 21:30N 49°51' W 124°60'510.9
2018-Jun-16 21:00N 49°47' W 124°54'510.0
2018-Jun-16 20:30N 49°43' W 124°49'510.3
2018-Jun-16 20:00N 49°39' W 124°44'510.3
2018-Jun-16 19:29N 49°36' W 124°38'6 9.5
2018-Jun-16 18:51N 49°31' W 124°32'50 2.5
2018-Jun-15 22:52N 48°59' W 123°35'410.6
2018-Jun-15 22:28N 48°55' W 123°30'510.6
2018-Jun-15 22:00N 48°52' W 123°25'510.5
2018-Jun-15 21:29N 48°47' W 123°21'611.6
2018-Jun-15 20:57N 48°42' W 123°15'510.9
2018-Jun-15 20:30N 48°37' W 123°14'4 8.3
2018-Jun-15 20:00N 48°33' W 123°11'4 7.6
2018-Jun-15 19:30N 48°30' W 123°09'4 7.2
2018-Jun-15 18:59N 48°27' W 123°05'3412.0
2018-Jun-15 16:11N 47°60' W 122°35'314.6
2018-Jun-15 15:58N 47°57' W 122°33'613.1
2018-Jun-15 15:30N 47°52' W 122°30'611.8
2018-Jun-15 15:00N 47°46' W 122°28'611.2
2018-Jun-15 14:30N 47°40' W 122°29'3 6.6
2018-Jun-15 14:00N 47°37' W 122°30'0 0.7
2018-Jun-15 13:26N 47°37' W 122°31'0 0.0
2018-Jun-15 12:59N 47°37' W 122°31'0 0.0
2018-Jun-15 12:29N 47°37' W 122°31'0 0.0
2018-Jun-15 11:59N 47°37' W 122°31'0 0.0
2018-Jun-15 11:29N 47°37' W 122°31'0 0.0
2018-Jun-15 10:59N 47°37' W 122°31'0 0.0
2018-Jun-15 10:29N 47°37' W 122°31'0 0.0
2018-Jun-15 09:59N 47°37' W 122°31'0 0.0
2018-Jun-15 09:29N 47°37' W 122°31'0 0.0
2018-Jun-15 08:59N 47°37' W 122°31'0 0.0
2018-Jun-15 08:29N 47°37' W 122°31'0 0.0
2018-Jun-15 07:56N 47°37' W 122°31'0 0.0
2018-Jun-15 07:29N 47°37' W 122°31'0 0.0
2018-Jun-15 06:59N 47°37' W 122°31'0 0.0
2018-Jun-15 06:29N 47°37' W 122°31'0 0.0
2018-Jun-15 05:59N 47°37' W 122°31'0 0.0
2018-Jun-15 05:26N 47°37' W 122°31'0 0.0
2018-Jun-15 04:59N 47°37' W 122°31'0 0.0
2018-Jun-15 04:29N 47°37' W 122°31'0 0.0
2018-Jun-15 03:59N 47°37' W 122°31'0 0.0
2018-Jun-15 03:29N 47°37' W 122°31'0 0.0
2018-Jun-15 02:56N 47°37' W 122°31'0 0.0
2018-Jun-15 02:29N 47°37' W 122°31'0 0.0
2018-Jun-15 01:56N 47°37' W 122°31'0 0.0
2018-Jun-15 01:29N 47°37' W 122°31'0 0.0
2018-Jun-15 00:59N 47°37' W 122°31'0 0.0
2018-Jun-15 00:23N 47°37' W 122°31'0 0.0
2018-Jun-14 23:57N 47°37' W 122°31'0 0.0
2018-Jun-14 23:31N 47°37' W 122°31'0 0.0
2018-Jun-14 23:00N 47°37' W 122°31'0 0.0
2018-Jun-14 22:30N 47°37' W 122°31'0 0.0
2018-Jun-14 22:01N 47°37' W 122°31'0 0.7
2018-Jun-14 21:30N 47°37' W 122°30'4 7.5
2018-Jun-14 21:00N 47°40' W 122°27'2 4.3
2018-Jun-14 20:31N 47°40' W 122°24'0 0.3
2018-Jun-14 20:00N 47°40' W 122°24'0 0.0
2018-Jun-14 19:30N 47°40' W 122°24'3 5.5
2018-Jun-14 19:00N 47°39' W 122°20'4 7.1
2018-Jun-14 18:30N 47°38' W 122°15'2 4.2
2018-Jun-14 17:59N 47°37' W 122°13'0 0.0
2018-Jun-14 17:30N 47°37' W 122°13'0 0.0
2018-Jun-14 16:56N 47°37' W 122°13'0 0.0
2018-Jun-14 16:30N 47°37' W 122°13'0 0.0
2018-Jun-14 16:00N 47°37' W 122°13'0 0.0
2018-Jun-14 15:30N 47°37' W 122°13'0 0.0
2018-Jun-14 15:00N 47°37' W 122°13'0 0.0
2018-Jun-14 14:30N 47°37' W 122°13'0 0.0
2018-Jun-14 13:59N 47°37' W 122°13'0 0.0
2018-Jun-14 13:30N 47°37' W 122°13'0 0.0
2018-Jun-14 13:00N 47°37' W 122°13'0 0.0
2018-Jun-14 12:30N 47°37' W 122°13'0 0.0
2018-Jun-14 12:00N 47°37' W 122°13'0 0.0
2018-Jun-14 11:30N 47°37' W 122°13'0 0.0
2018-Jun-14 11:00N 47°37' W 122°13'0 0.0
2018-Jun-14 10:26N 47°37' W 122°13'0 0.0
2018-Jun-14 10:00N 47°37' W 122°13'0 0.0
2018-Jun-14 09:29N 47°37' W 122°13'0 0.0
2018-Jun-14 09:00N 47°37' W 122°13'0 0.0
2018-Jun-14 08:30N 47°37' W 122°13'0 0.0
2018-Jun-14 08:00N 47°37' W 122°13'0 0.0
2018-Jun-14 07:30N 47°37' W 122°13'0 0.0
2018-Jun-14 07:00N 47°37' W 122°13'0 0.0
2018-Jun-14 06:30N 47°37' W 122°13'0 0.0
2018-Jun-14 06:00N 47°37' W 122°13'0 0.0
2018-Jun-14 05:30N 47°37' W 122°13'0 0.0
2018-Jun-13 22:41N 47°37' W 122°13'0 0.0
2018-Jun-13 22:29N 47°37' W 122°13'0 0.0
2018-Jun-13 22:00N 47°37' W 122°13'0 0.0
2018-Jun-13 21:30N 47°37' W 122°13'0 0.0
2018-Jun-13 21:00N 47°37' W 122°13'0 0.0
2018-Jun-13 20:28N 47°37' W 122°13'0 0.0
2018-Jun-13 20:01N 47°37' W 122°13'0 0.0
2018-Jun-13 19:30N 47°37' W 122°13'0 0.0
2018-Jun-13 19:00N 47°37' W 122°13'0 0.0
2018-Jun-13 18:30N 47°37' W 122°13'0 0.0
2018-Jun-13 10:52N 47°37' W 122°13'0 0.0
2018-Jun-13 10:30N 47°37' W 122°13'0 0.0
2018-Jun-13 10:00N 47°37' W 122°13'0 0.0
2018-Jun-13 09:30N 47°37' W 122°13'0 0.0
2018-Jun-13 09:00N 47°37' W 122°13'0 0.0
2018-Jun-13 08:30N 47°37' W 122°13'0 0.0
2018-Jun-13 08:00N 47°37' W 122°13'0 0.0
2018-Jun-13 07:30N 47°37' W 122°13'0 0.0
2018-Jun-13 07:00N 47°37' W 122°13'0 0.0
2018-Jun-13 06:30N 47°37' W 122°13'0 0.0
2018-Jun-13 06:00N 47°37' W 122°13'0 0.0
2018-Jun-12 23:11N 47°37' W 122°13'0 0.0
2018-Jun-12 23:00N 47°37' W 122°13'0 0.0
2018-Jun-12 22:30N 47°37' W 122°13'0 0.0
2018-Jun-12 22:00N 47°37' W 122°13'0 0.0
2018-Jun-12 21:30N 47°37' W 122°13'0 0.0
2018-Jun-12 21:00N 47°37' W 122°13'0 0.0
2018-Jun-12 20:30N 47°37' W 122°13'0 0.0
2018-Jun-12 20:00N 47°37' W 122°13'0 0.0
2018-Jun-12 19:30N 47°37' W 122°13'0 0.0
2018-Jun-12 19:00N 47°37' W 122°13'0 0.0
2018-Jun-12 18:30N 47°37' W 122°13'0 0.0
2018-Jun-12 18:00N 47°37' W 122°13'0 0.0
2018-Jun-12 17:30N 47°37' W 122°13'0 0.0
2018-Jun-12 17:00N 47°37' W 122°13'0 0.0
2018-Jun-12 16:30N 47°37' W 122°13'0 0.0
2018-Jun-12 16:00N 47°37' W 122°13'0 0.0
2018-Jun-12 15:30N 47°37' W 122°13'0 0.0
2018-Jun-12 14:59N 47°37' W 122°13'0 0.0
2018-Jun-12 14:29N 47°37' W 122°13'0 0.0
2018-Jun-11 02:34N 47°37' W 122°13'0 0.0
2018-Jun-11 02:25N 47°37' W 122°13'0 0.0
2018-Jun-11 02:00N 47°37' W 122°13'0 0.0
2018-Jun-10 23:26N 47°37' W 122°13'0 0.0
2018-Jun-10 23:00N 47°37' W 122°13'0 0.0
2018-Jun-10 22:28N 47°37' W 122°13'0 0.0
2018-Jun-10 21:59N 47°37' W 122°13'0 0.0
2018-Jun-10 21:30N 47°37' W 122°13'  

Dump ship's entire track history